Time;durP1;ratioP1;P1;durP2;ratioP2;P2;SDS_P1;SDS_P2;PMS_P1;PMS_P2;Temp;Humidity;BMP_temperature;BMP_pressure;BME280_temperature;BME280_humidity;BME280_pressure;Samples;Min_cycle;Max_cycle;Signal;HPM_P1;HPM_P2
2023/07/05 00:01:33;;;;;;;10.23;5.50;;;;;;;;;;4997007;28;20068;-89
2023/07/05 00:03:58;;;;;;;11.18;5.80;;;;;;;;;;5011305;28;20497;-89
2023/07/05 00:06:24;;;;;;;10.77;5.30;;;;;;;;;;4992243;28;20049;-94
2023/07/05 00:08:51;;;;;;;16.55;5.75;;;;;;;;;;5011917;28;20041;-91
2023/07/05 00:11:17;;;;;;;12.07;5.63;;;;;;;;;;5013829;28;20073;-86
2023/07/05 00:13:43;;;;;;;14.07;6.35;;;;;;;;;;5019742;28;20045;-87
2023/07/05 00:16:10;;;;;;;13.05;5.85;;;;;;;;;;5011253;28;20405;-88
2023/07/05 00:18:36;;;;;;;12.90;5.18;;;;;;;;;;4998942;28;20050;-88
2023/07/05 00:21:04;;;;;;;11.35;6.00;;;;;;;;;;4999746;28;20038;-91
2023/07/05 00:23:30;;;;;;;11.77;5.63;;;;;;;;;;4997543;28;22040;-90
2023/07/05 00:25:56;;;;;;;12.85;6.32;;;;;;;;;;4994569;28;20050;-88
2023/07/05 00:28:22;;;;;;;14.52;6.90;;;;;;;;;;5009890;28;20421;-88
2023/07/05 00:30:48;;;;;;;14.13;7.32;;;;;;;;;;5021207;28;20140;-91
2023/07/05 00:33:15;;;;;;;17.38;7.22;;;;;;;;;;5000000;28;20106;-89
2023/07/05 00:35:50;;;;;;;13.57;6.80;;;;;;;;;;4996591;28;20057;-90
2023/07/05 00:38:17;;;;;;;14.95;6.90;;;;;;;;;;5012651;28;20045;-87
2023/07/05 00:40:43;;;;;;;11.80;6.07;;;;;;;;;;5004012;28;20104;-83
2023/07/05 00:43:09;;;;;;;17.67;7.53;;;;;;;;;;4996370;28;20046;-89
2023/07/05 00:45:35;;;;;;;13.20;6.18;;;;;;;;;;4995697;28;20149;-89
2023/07/05 00:48:01;;;;;;;12.57;6.15;;;;;;;;;;4996259;28;20141;-90
2023/07/05 00:50:34;;;;;;;10.57;6.35;;;;;;;;;;4997843;28;20926;-87
2023/07/05 00:53:00;;;;;;;12.40;6.68;;;;;;;;;;4993413;28;20100;-79
2023/07/05 00:55:27;;;;;;;13.00;6.40;;;;;;;;;;4996202;28;20184;-87
2023/07/05 00:57:53;;;;;;;11.10;6.80;;;;;;;;;;5020552;28;20101;-92
2023/07/05 01:00:20;;;;;;;19.70;7.28;;;;;;;;;;4997379;28;20509;-79
2023/07/05 01:02:48;;;;;;;13.55;7.30;;;;;;;;;;4995729;28;20041;-91
2023/07/05 01:05:14;;;;;;;15.70;6.60;;;;;;;;;;5011796;28;20887;-79
2023/07/05 01:07:40;;;;;;;12.77;7.15;;;;;;;;;;4996059;28;20041;-86
2023/07/05 01:10:07;;;;;;;15.07;7.40;;;;;;;;;;5016329;28;20045;-77
2023/07/05 01:12:45;;;;;;;15.38;7.70;;;;;;;;;;4993414;28;20484;-86
2023/07/05 01:15:20;;;;;;;16.27;7.60;;;;;;;;;;5020889;28;20049;-78
2023/07/05 01:18:01;;;;;;;13.68;7.28;;;;;;;;;;4998928;28;20042;-88
2023/07/05 01:20:33;;;;;;;15.80;7.82;;;;;;;;;;5000766;28;20716;-88
2023/07/05 01:23:02;;;;;;;18.88;7.93;;;;;;;;;;5005604;28;20132;-92
2023/07/05 01:25:48;;;;;;;18.83;8.13;;;;;;;;;;4999179;28;20125;-91
2023/07/05 01:28:35;;;;;;;15.82;8.48;;;;;;;;;;5024275;28;20042;-89
2023/07/05 01:31:12;;;;;;;14.88;8.90;;;;;;;;;;4992341;28;20060;-82
2023/07/05 01:33:44;;;;;;;16.23;8.57;;;;;;;;;;4997491;28;20038;-86
2023/07/05 01:36:12;;;;;;;18.75;9.20;;;;;;;;;;5003641;28;20053;-87
2023/07/05 01:38:38;;;;;;;17.65;8.95;;;;;;;;;;4996351;28;20056;-90
2023/07/05 01:41:05;;;;;;;17.65;9.93;;;;;;;;;;5013669;28;20191;-90
2023/07/05 01:43:34;;;;;;;15.15;9.50;;;;;;;;;;5003464;28;20254;-84
2023/07/05 01:46:19;;;;;;;18.38;9.70;;;;;;;;;;5008761;28;20990;-91
2023/07/05 01:48:56;;;;;;;23.35;10.15;;;;;;;;;;5025868;28;20052;-85
2023/07/05 01:51:35;;;;;;;21.10;11.17;;;;;;;;;;5020231;28;20137;-78
2023/07/05 01:54:02;;;;;;;17.05;11.68;;;;;;;;;;5018223;28;20132;-82
2023/07/05 01:56:31;;;;;;;20.85;12.43;;;;;;;;;;4991698;28;20053;-91
2023/07/05 01:59:01;;;;;;;22.40;10.85;;;;;;;;;;4999232;28;20042;-88
2023/07/05 02:01:28;;;;;;;22.00;11.40;;;;;;;;;;5019416;28;20053;-83
2023/07/05 02:03:55;;;;;;;19.95;11.25;;;;;;;;;;5017335;28;20520;-90
2023/07/05 02:06:21;;;;;;;21.83;11.55;;;;;;;;;;5004215;28;20074;-86
2023/07/05 02:08:49;;;;;;;20.15;10.90;;;;;;;;;;5001094;28;20835;-90
2023/07/05 02:11:15;;;;;;;22.42;11.52;;;;;;;;;;5019491;28;20045;-89
2023/07/05 02:13:42;;;;;;;23.40;12.13;;;;;;;;;;4997648;28;20045;-82
2023/07/05 02:16:08;;;;;;;20.75;11.65;;;;;;;;;;5000452;28;20064;-89
2023/07/05 02:18:34;;;;;;;19.45;11.70;;;;;;;;;;4990334;28;20042;-88
2023/07/05 02:21:00;;;;;;;23.42;11.90;;;;;;;;;;4995851;28;20180;-87
2023/07/05 02:23:26;;;;;;;24.20;12.02;;;;;;;;;;4994003;28;20970;-82
2023/07/05 02:25:52;;;;;;;20.17;12.30;;;;;;;;;;5001158;28;20049;-83
2023/07/05 02:28:18;;;;;;;21.13;12.30;;;;;;;;;;5010769;28;20088;-83
2023/07/05 02:30:44;;;;;;;21.05;12.27;;;;;;;;;;5015911;28;20140;-82
2023/07/05 02:33:11;;;;;;;18.58;11.70;;;;;;;;;;5008961;28;20042;-91
2023/07/05 02:35:37;;;;;;;20.60;12.73;;;;;;;;;;5014936;28;20540;-86
2023/07/05 02:38:04;;;;;;;22.52;13.65;;;;;;;;;;5009270;28;20049;-86
2023/07/05 02:40:30;;;;;;;20.92;13.52;;;;;;;;;;4995342;28;20137;-77
2023/07/05 02:42:59;;;;;;;18.90;12.70;;;;;;;;;;5012033;28;20057;-76
2023/07/05 02:45:25;;;;;;;22.75;13.82;;;;;;;;;;5009595;28;20105;-85
2023/07/05 02:47:51;;;;;;;23.65;14.18;;;;;;;;;;5008425;28;20073;-87
2023/07/05 02:50:17;;;;;;;21.55;13.02;;;;;;;;;;4995484;28;20453;-84
2023/07/05 02:52:43;;;;;;;18.27;13.32;;;;;;;;;;4996728;28;20042;-83
2023/07/05 02:55:09;;;;;;;22.70;13.90;;;;;;;;;;4992623;28;20079;-88
2023/07/05 02:57:35;;;;;;;27.52;14.50;;;;;;;;;;4979872;28;20048;-88
2023/07/05 03:00:02;;;;;;;22.95;13.48;;;;;;;;;;4994681;28;20050;-85
2023/07/05 03:02:28;;;;;;;23.55;13.00;;;;;;;;;;5012327;28;20047;-79
2023/07/05 03:04:54;;;;;;;22.08;13.55;;;;;;;;;;4995051;28;20240;-85
2023/07/05 03:07:20;;;;;;;23.88;13.77;;;;;;;;;;5009659;28;20048;-76
2023/07/05 03:09:48;;;;;;;36.13;15.40;;;;;;;;;;4996921;28;20077;-84
2023/07/05 03:12:15;;;;;;;24.90;15.32;;;;;;;;;;5014361;28;20045;-83
2023/07/05 03:14:41;;;;;;;25.85;15.90;;;;;;;;;;5007896;28;20042;-83
2023/07/05 03:17:07;;;;;;;22.55;16.08;;;;;;;;;;5009254;28;20045;-86
2023/07/05 03:19:33;;;;;;;29.15;17.15;;;;;;;;;;5011419;28;20041;-84
2023/07/05 03:21:59;;;;;;;23.23;15.80;;;;;;;;;;4987724;28;20232;-80
2023/07/05 03:24:25;;;;;;;27.67;16.80;;;;;;;;;;4993728;28;20060;-73
2023/07/05 03:26:52;;;;;;;24.33;15.48;;;;;;;;;;5008413;28;20034;-86
2023/07/05 03:29:18;;;;;;;27.75;15.55;;;;;;;;;;5009486;28;20042;-86
2023/07/05 03:31:44;;;;;;;27.77;16.55;;;;;;;;;;5008812;28;20057;-85
2023/07/05 03:34:10;;;;;;;22.63;15.35;;;;;;;;;;5010745;28;20037;-83
2023/07/05 03:36:36;;;;;;;23.90;15.50;;;;;;;;;;5002153;28;20551;-80
2023/07/05 03:39:03;;;;;;;21.10;14.57;;;;;;;;;;5000236;28;20045;-82
2023/07/05 03:41:29;;;;;;;20.52;15.73;;;;;;;;;;5002970;28;20098;-80
2023/07/05 03:43:57;;;;;;;22.08;15.52;;;;;;;;;;5004718;28;20060;-78
2023/07/05 03:46:23;;;;;;;30.13;15.95;;;;;;;;;;5020757;28;20061;-81
2023/07/05 03:48:49;;;;;;;21.52;14.55;;;;;;;;;;5002511;28;20603;-84
2023/07/05 03:51:17;;;;;;;25.40;15.52;;;;;;;;;;5002863;28;20037;-84
2023/07/05 03:53:43;;;;;;;21.42;14.68;;;;;;;;;;5002061;28;20052;-77
2023/07/05 03:56:10;;;;;;;21.52;15.73;;;;;;;;;;5020728;28;20444;-86
2023/07/05 03:58:37;;;;;;;21.60;14.30;;;;;;;;;;5018913;28;20034;-79
2023/07/05 04:01:04;;;;;;;25.88;14.88;;;;;;;;;;5001590;28;20141;-78
2023/07/05 04:03:30;;;;;;;20.35;13.73;;;;;;;;;;4996730;28;20064;-80
2023/07/05 04:05:56;;;;;;;21.80;14.98;;;;;;;;;;5011414;28;20061;-82
2023/07/05 04:08:22;;;;;;;21.13;14.02;;;;;;;;;;5004947;28;20042;-80
2023/07/05 04:10:48;;;;;;;20.52;13.73;;;;;;;;;;5010350;28;20059;-82
2023/07/05 04:13:14;;;;;;;21.50;14.02;;;;;;;;;;4988395;28;20071;-79
2023/07/05 04:15:40;;;;;;;22.90;13.30;;;;;;;;;;5012319;28;20057;-81
2023/07/05 04:18:06;;;;;;;14.45;11.43;;;;;;;;;;4989860;28;20042;-81
2023/07/05 04:20:32;;;;;;;16.60;11.48;;;;;;;;;;5011801;28;20049;-84
2023/07/05 04:22:59;;;;;;;15.57;11.57;;;;;;;;;;5012377;28;20168;-83
2023/07/05 04:25:25;;;;;;;16.55;10.80;;;;;;;;;;5011762;28;20040;-75
2023/07/05 04:27:51;;;;;;;17.55;11.20;;;;;;;;;;4992902;28;20559;-76
2023/07/05 04:30:17;;;;;;;16.02;11.35;;;;;;;;;;4995595;28;20067;-83
2023/07/05 04:32:43;;;;;;;14.35;11.05;;;;;;;;;;4997772;28;20045;-86
2023/07/05 04:35:10;;;;;;;17.73;12.30;;;;;;;;;;5007143;28;20041;-80
2023/07/05 04:37:36;;;;;;;13.32;10.85;;;;;;;;;;5014531;28;20096;-78
2023/07/05 04:40:03;;;;;;;14.60;10.57;;;;;;;;;;5008167;28;20785;-84
2023/07/05 04:42:29;;;;;;;13.77;9.32;;;;;;;;;;5006931;28;20049;-86
2023/07/05 04:44:55;;;;;;;14.00;10.05;;;;;;;;;;4993700;28;20417;-85
2023/07/05 04:47:21;;;;;;;13.30;8.57;;;;;;;;;;5011775;28;20064;-81
2023/07/05 04:49:47;;;;;;;11.35;8.30;;;;;;;;;;5012137;28;20041;-84
2023/07/05 04:52:13;;;;;;;10.77;8.60;;;;;;;;;;4974621;28;20077;-81
2023/07/05 04:54:39;;;;;;;12.48;8.35;;;;;;;;;;5018989;28;20544;-76
2023/07/05 04:57:05;;;;;;;10.65;7.60;;;;;;;;;;5010530;28;20152;-79
2023/07/05 04:59:31;;;;;;;9.43;5.90;;;;;;;;;;4993624;28;20049;-77
2023/07/05 05:01:57;;;;;;;9.50;5.82;;;;;;;;;;5015847;28;20598;-79
2023/07/05 05:04:23;;;;;;;6.53;5.13;;;;;;;;;;5010753;28;20046;-75
2023/07/05 05:06:49;;;;;;;11.73;5.57;;;;;;;;;;5018583;28;20048;-84
2023/07/05 05:09:15;;;;;;;8.20;5.50;;;;;;;;;;4997240;28;20049;-86
2023/07/05 05:11:41;;;;;;;9.13;5.60;;;;;;;;;;5016754;28;20045;-78
2023/07/05 05:14:08;;;;;;;8.60;5.93;;;;;;;;;;4992284;28;20598;-86
2023/07/05 05:16:34;;;;;;;12.55;5.25;;;;;;;;;;4998804;28;20042;-84
2023/07/05 05:19:00;;;;;;;9.40;5.60;;;;;;;;;;4993542;28;20155;-85
2023/07/05 05:21:25;;;;;;;7.95;4.95;;;;;;;;;;5009356;28;20050;-78
2023/07/05 05:23:51;;;;;;;6.35;4.82;;;;;;;;;;5019040;28;20037;-86
2023/07/05 05:26:17;;;;;;;6.53;4.97;;;;;;;;;;4993159;28;20046;-83
2023/07/05 05:28:43;;;;;;;9.95;4.80;;;;;;;;;;4998331;28;20061;-86
2023/07/05 05:31:11;;;;;;;6.10;4.63;;;;;;;;;;5009096;28;20132;-85
2023/07/05 05:33:37;;;;;;;6.18;4.85;;;;;;;;;;4999603;28;20058;-81
2023/07/05 05:36:03;;;;;;;8.65;5.15;;;;;;;;;;5003783;28;20048;-84
2023/07/05 05:38:30;;;;;;;7.45;4.88;;;;;;;;;;5012636;28;20482;-86
2023/07/05 05:41:07;;;;;;;7.20;5.30;;;;;;;;;;4995885;28;20050;-85
2023/07/05 05:43:33;;;;;;;8.70;4.90;;;;;;;;;;4993838;28;20042;-84
2023/07/05 05:45:59;;;;;;;7.18;4.95;;;;;;;;;;4996395;28;20049;-86
2023/07/05 05:48:26;;;;;;;6.68;5.03;;;;;;;;;;5016418;28;20536;-84
2023/07/05 05:50:52;;;;;;;6.78;5.18;;;;;;;;;;5011049;28;20128;-84
2023/07/05 05:53:18;;;;;;;7.63;4.72;;;;;;;;;;5009305;28;20405;-85
2023/07/05 05:55:44;;;;;;;7.05;4.75;;;;;;;;;;5000238;28;20056;-80
2023/07/05 05:58:10;;;;;;;7.00;4.57;;;;;;;;;;4996158;28;20128;-82
2023/07/05 06:00:36;;;;;;;5.72;4.70;;;;;;;;;;5012362;28;20045;-85
2023/07/05 06:03:03;;;;;;;6.22;4.57;;;;;;;;;;5015223;28;20563;-84
2023/07/05 06:05:29;;;;;;;6.05;4.63;;;;;;;;;;5020071;28;20045;-83
2023/07/05 06:07:55;;;;;;;7.00;4.30;;;;;;;;;;4996307;28;20049;-86
2023/07/05 06:10:24;;;;;;;6.60;4.15;;;;;;;;;;5020858;28;20460;-86
2023/07/05 06:12:50;;;;;;;6.32;4.10;;;;;;;;;;5012609;28;20474;-85
2023/07/05 06:15:16;;;;;;;5.97;4.20;;;;;;;;;;4996670;28;20041;-84
2023/07/05 06:17:42;;;;;;;5.80;4.32;;;;;;;;;;4987552;28;20580;-84
2023/07/05 06:20:10;;;;;;;6.80;4.13;;;;;;;;;;4994328;28;20108;-85
2023/07/05 06:22:36;;;;;;;7.00;4.30;;;;;;;;;;4999433;28;20053;-85
2023/07/05 06:25:03;;;;;;;6.53;3.95;;;;;;;;;;4996304;28;20049;-83
2023/07/05 06:27:29;;;;;;;8.13;4.13;;;;;;;;;;4991513;28;20189;-85
2023/07/05 06:29:55;;;;;;;7.32;4.30;;;;;;;;;;4989481;28;20065;-84
2023/07/05 06:32:21;;;;;;;6.22;4.03;;;;;;;;;;5000447;28;20396;-82
2023/07/05 06:34:47;;;;;;;12.50;4.30;;;;;;;;;;4996316;28;20057;-79
2023/07/05 06:37:13;;;;;;;5.28;4.13;;;;;;;;;;4995178;28;20126;-82
2023/07/05 06:39:41;;;;;;;5.60;3.78;;;;;;;;;;4998078;28;20371;-85
2023/07/05 06:42:07;;;;;;;6.40;3.90;;;;;;;;;;5013275;28;20130;-87
2023/07/05 06:44:33;;;;;;;6.75;3.80;;;;;;;;;;5015367;28;20474;-87
2023/07/05 06:46:59;;;;;;;6.68;3.83;;;;;;;;;;4999293;28;20053;-84
2023/07/05 06:49:25;;;;;;;7.10;3.95;;;;;;;;;;5009783;28;20036;-85
2023/07/05 06:51:51;;;;;;;6.40;3.88;;;;;;;;;;4999426;28;20139;-82
2023/07/05 06:54:18;;;;;;;5.32;3.83;;;;;;;;;;5012241;28;20041;-86
2023/07/05 06:56:44;;;;;;;5.57;3.75;;;;;;;;;;4993387;28;20050;-85
2023/07/05 06:59:10;;;;;;;5.95;4.15;;;;;;;;;;4990462;28;20080;-85
2023/07/05 07:01:36;;;;;;;6.95;3.80;;;;;;;;;;4999113;28;20501;-86
2023/07/05 07:04:06;;;;;;;5.43;3.80;;;;;;;;;;4996834;28;20129;-82
2023/07/05 07:06:33;;;;;;;6.20;3.67;;;;;;;;;;5010359;28;20120;-82
2023/07/05 07:08:59;;;;;;;5.20;3.58;;;;;;;;;;5008040;28;20092;-85
2023/07/05 07:11:25;;;;;;;7.78;3.92;;;;;;;;;;4992839;28;20112;-84
2023/07/05 07:13:51;;;;;;;8.38;4.00;;;;;;;;;;4995022;28;20048;-80
2023/07/05 07:16:18;;;;;;;7.95;3.80;;;;;;;;;;5009992;28;20053;-85
2023/07/05 07:18:47;;;;;;;5.13;3.38;;;;;;;;;;5005870;28;20564;-76
2023/07/05 07:21:14;;;;;;;7.72;3.63;;;;;;;;;;5008364;28;20429;-86
2023/07/05 07:23:40;;;;;;;5.63;3.58;;;;;;;;;;5008078;28;20045;-80
2023/07/05 07:26:16;;;;;;;11.80;3.60;;;;;;;;;;4998193;28;20029;-83
2023/07/05 07:28:45;;;;;;;7.63;3.53;;;;;;;;;;4992248;28;20394;-85
2023/07/05 07:31:11;;;;;;;8.25;3.15;;;;;;;;;;5012690;28;20045;-83
2023/07/05 07:33:37;;;;;;;5.53;3.67;;;;;;;;;;5010181;28;20038;-85
2023/07/05 07:36:13;;;;;;;6.55;3.40;;;;;;;;;;4995802;28;20041;-77
2023/07/05 07:38:39;;;;;;;7.47;3.53;;;;;;;;;;5010261;28;20049;-82
2023/07/05 07:41:11;;;;;;;5.88;3.05;;;;;;;;;;5012288;28;20034;-84
2023/07/05 07:43:37;;;;;;;8.52;3.42;;;;;;;;;;5014590;28;20056;-84
2023/07/05 07:46:07;;;;;;;7.15;3.40;;;;;;;;;;5015978;28;20053;-81
2023/07/05 07:48:33;;;;;;;5.63;3.65;;;;;;;;;;4997690;28;20119;-80
2023/07/05 07:50:59;;;;;;;9.25;3.75;;;;;;;;;;5011695;28;20509;-83
2023/07/05 07:53:25;;;;;;;6.13;4.13;;;;;;;;;;5013268;28;20049;-84
2023/07/05 07:55:51;;;;;;;5.82;2.70;;;;;;;;;;5017632;28;20127;-81
2023/07/05 07:58:17;;;;;;;13.65;2.58;;;;;;;;;;5016684;28;20041;-84
2023/07/05 08:00:43;;;;;;;6.00;2.08;;;;;;;;;;4996805;28;20038;-76
2023/07/05 08:03:09;;;;;;;1.95;1.50;;;;;;;;;;4995785;28;20072;-80
2023/07/05 08:05:35;;;;;;;1.95;1.33;;;;;;;;;;4997655;28;20095;-84
2023/07/05 08:08:01;;;;;;;6.30;1.80;;;;;;;;;;4997197;28;20386;-82
2023/07/05 08:10:30;;;;;;;3.10;1.17;;;;;;;;;;4998550;28;20094;-86
2023/07/05 08:12:57;;;;;;;3.80;1.40;;;;;;;;;;4982173;28;20061;-82
2023/07/05 08:15:23;;;;;;;3.03;1.42;;;;;;;;;;5015303;28;20106;-80
2023/07/05 08:17:50;;;;;;;2.03;1.00;;;;;;;;;;5012201;28;20041;-84
2023/07/05 08:20:27;;;;;;;1.50;1.00;;;;;;;;;;4992144;28;20293;-84
2023/07/05 08:23:13;;;;;;;2.10;1.25;;;;;;;;;;4991873;28;20065;-86
2023/07/05 08:26:19;;;;;;;2.25;1.20;;;;;;;;;;4988442;28;20037;-85
2023/07/05 08:28:49;;;;;;;5.38;1.42;;;;;;;;;;5008320;28;20053;-87
2023/07/05 08:31:27;;;;;;;20.02;1.73;;;;;;;;;;4997569;28;20045;-86
2023/07/05 08:37:19;;;;;;;2.30;0.95;;;;;;;;;;5008222;28;20467;-83
2023/07/05 08:46:40;;;;;;;1.75;1.13;;;;;;;;;;5002885;28;20654;-82
2023/07/05 08:49:12;;;;;;;10.68;1.85;;;;;;;;;;4988145;28;20517;-81
2023/07/05 08:51:39;;;;;;;73.50;4.00;;;;;;;;;;4991403;28;20128;-83
2023/07/05 08:54:10;;;;;;;7.20;1.90;;;;;;;;;;5015745;28;20189;-83
2023/07/05 08:56:39;;;;;;;1.90;1.05;;;;;;;;;;4996063;28;20052;-75
2023/07/05 08:59:14;;;;;;;101.95;2.95;;;;;;;;;;4990440;28;20711;-73
2023/07/05 09:01:42;;;;;;;4.82;1.08;;;;;;;;;;5010722;28;20057;-83
2023/07/05 09:04:10;;;;;;;39.50;2.45;;;;;;;;;;5013629;28;20042;-73
2023/07/05 09:06:42;;;;;;;2.70;1.15;;;;;;;;;;5009596;28;20071;-82
2023/07/05 09:09:22;;;;;;;53.15;3.00;;;;;;;;;;5008583;28;20041;-72
2023/07/05 09:12:07;;;;;;;3.50;1.33;;;;;;;;;;4976582;28;20113;-73
2023/07/05 09:14:41;;;;;;;11.65;1.90;;;;;;;;;;4993584;28;20080;-83
2023/07/05 09:17:13;;;;;;;82.60;4.82;;;;;;;;;;4995563;28;20360;-79
2023/07/05 09:19:42;;;;;;;18.92;2.08;;;;;;;;;;4994430;28;20343;-82
2023/07/05 09:22:11;;;;;;;4.38;1.50;;;;;;;;;;5010545;28;21032;-84
2023/07/05 09:24:39;;;;;;;114.45;3.72;;;;;;;;;;4990486;28;20441;-82
2023/07/05 09:27:05;;;;;;;4.25;1.88;;;;;;;;;;5010598;28;20303;-78
2023/07/05 09:29:40;;;;;;;4.80;1.75;;;;;;;;;;5000898;28;20045;-82
2023/07/05 09:32:13;;;;;;;5.47;1.67;;;;;;;;;;5014869;28;20076;-82
2023/07/05 09:34:42;;;;;;;3.65;1.50;;;;;;;;;;4994201;28;20448;-81
2023/07/05 09:37:09;;;;;;;;;;;;;;;;;;5000606;28;20056;-76
2023/07/05 09:39:41;;;;;;;4.40;1.80;;;;;;;;;;4992625;28;19931;-83
2023/07/05 09:42:12;;;;;;;4.80;1.73;;;;;;;;;;5014434;28;20052;-77
2023/07/05 09:44:38;;;;;;;4.93;1.67;;;;;;;;;;4991658;28;20493;-76
2023/07/05 09:47:04;;;;;;;5.82;1.95;;;;;;;;;;5006345;28;20073;-80
2023/07/05 09:49:54;;;;;;;10.50;2.55;;;;;;;;;;4994635;28;20045;-82
2023/07/05 09:52:24;;;;;;;10.13;2.38;;;;;;;;;;4985938;28;20427;-82
2023/07/05 09:54:53;;;;;;;9.27;2.35;;;;;;;;;;4989464;28;20046;-76
2023/07/05 09:57:24;;;;;;;7.82;2.63;;;;;;;;;;4994412;28;20064;-82
2023/07/05 09:59:52;;;;;;;10.27;2.67;;;;;;;;;;4990040;28;20157;-80
2023/07/05 10:02:26;;;;;;;10.52;3.20;;;;;;;;;;4989412;28;20115;-77
2023/07/05 10:04:53;;;;;;;10.60;2.75;;;;;;;;;;4987242;28;20692;-83
2023/07/05 10:07:26;;;;;;;11.27;2.60;;;;;;;;;;4987860;28;20065;-80
2023/07/05 10:09:59;;;;;;;11.88;2.40;;;;;;;;;;4990892;28;20167;-85
2023/07/05 10:12:27;;;;;;;10.35;2.63;;;;;;;;;;4985282;28;20050;-82
2023/07/05 10:14:55;;;;;;;8.43;2.08;;;;;;;;;;4985201;28;20534;-78
2023/07/05 10:17:21;;;;;;;9.27;1.98;;;;;;;;;;4988187;28;20056;-80
2023/07/05 10:19:51;;;;;;;11.90;2.30;;;;;;;;;;4989478;28;20049;-80
2023/07/05 10:22:26;;;;;;;6.43;2.33;;;;;;;;;;4991763;28;20053;-79
2023/07/05 10:24:57;;;;;;;14.88;1.92;;;;;;;;;;4985566;28;20053;-81
2023/07/05 10:27:37;;;;;;;9.90;1.95;;;;;;;;;;4977965;28;20401;-84
2023/07/05 10:30:07;;;;;;;12.20;2.75;;;;;;;;;;5005844;28;20077;-77
2023/07/05 10:32:34;;;;;;;16.10;2.95;;;;;;;;;;4988879;28;20054;-84
2023/07/05 10:35:01;;;;;;;15.57;3.20;;;;;;;;;;4995454;28;20137;-80
2023/07/05 10:37:30;;;;;;;17.25;2.97;;;;;;;;;;5007118;28;20140;-82
2023/07/05 10:39:56;;;;;;;12.90;2.45;;;;;;;;;;4997103;28;20508;-75
2023/07/05 10:42:23;;;;;;;13.82;2.88;;;;;;;;;;4995713;28;20050;-83
2023/07/05 10:44:49;;;;;;;14.52;2.80;;;;;;;;;;4987786;28;20059;-85
2023/07/05 10:47:15;;;;;;;13.73;2.35;;;;;;;;;;4986647;28;20108;-78
2023/07/05 10:49:46;;;;;;;8.45;1.95;;;;;;;;;;5005929;28;20069;-82
2023/07/05 10:52:15;;;;;;;9.98;1.58;;;;;;;;;;4995774;28;20071;-82
2023/07/05 10:54:57;;;;;;;6.00;1.50;;;;;;;;;;5004930;28;20062;-82
2023/07/05 10:57:43;;;;;;;6.40;1.15;;;;;;;;;;4996128;28;21196;-78
2023/07/05 11:00:23;;;;;;;5.35;1.55;;;;;;;;;;4991412;28;20054;-82
2023/07/05 11:02:56;;;;;;;5.60;1.05;;;;;;;;;;4991584;28;20711;-83
2023/07/05 11:05:29;;;;;;;5.15;1.30;;;;;;;;;;4972467;28;20069;-87
2023/07/05 11:07:56;;;;;;;12.68;1.77;;;;;;;;;;4990590;28;20073;-84
2023/07/05 11:10:24;;;;;;;5.85;1.20;;;;;;;;;;4993317;28;20076;-77
2023/07/05 11:12:50;;;;;;;12.70;1.70;;;;;;;;;;4989497;28;20132;-82
2023/07/05 11:15:21;;;;;;;10.75;2.30;;;;;;;;;;4993469;28;20053;-85
2023/07/05 11:17:50;;;;;;;10.23;2.45;;;;;;;;;;5008306;28;20102;-84
2023/07/05 11:20:36;;;;;;;12.32;2.80;;;;;;;;;;4988551;28;20049;-80
2023/07/05 11:23:02;;;;;;;14.43;3.40;;;;;;;;;;4986281;28;20050;-78
2023/07/05 11:25:47;;;;;;;9.63;2.35;;;;;;;;;;4985841;28;20062;-87
2023/07/05 11:28:49;;;;;;;10.57;2.38;;;;;;;;;;4994787;28;20140;-83
2023/07/05 11:31:41;;;;;;;15.80;2.92;;;;;;;;;;4900396;29;20125;-85
2023/07/05 11:34:25;;;;;;;11.10;2.13;;;;;;;;;;4948138;28;20403;-83
2023/07/05 11:37:03;;;;;;;8.85;2.20;;;;;;;;;;4990207;28;20050;-81
2023/07/05 11:39:33;;;;;;;8.27;2.15;;;;;;;;;;4984877;28;20046;-83
2023/07/05 11:42:21;;;;;;;7.35;1.98;;;;;;;;;;4988017;28;20042;-84
2023/07/05 11:44:51;;;;;;;5.20;1.50;;;;;;;;;;4972610;28;20058;-79
2023/07/05 11:47:23;;;;;;;4.80;1.15;;;;;;;;;;5007114;28;20054;-81
2023/07/05 11:49:50;;;;;;;6.25;1.20;;;;;;;;;;5009056;28;20041;-86
2023/07/05 11:52:23;;;;;;;4.93;1.23;;;;;;;;;;5010039;28;20130;-86
2023/07/05 11:54:59;;;;;;;5.47;1.25;;;;;;;;;;5009721;28;20054;-88
2023/07/05 11:57:26;;;;;;;4.57;1.40;;;;;;;;;;4993556;28;20053;-87
2023/07/05 12:00:22;;;;;;;6.47;1.38;;;;;;;;;;4998951;28;20121;-87
2023/07/05 12:02:51;;;;;;;2.75;1.33;;;;;;;;;;4966592;28;20184;-82
2023/07/05 12:05:19;;;;;;;5.15;1.17;;;;;;;;;;4988264;28;20147;-87
2023/07/05 12:07:47;;;;;;;4.93;1.52;;;;;;;;;;4990761;28;20064;-83
2023/07/05 12:10:19;;;;;;;4.00;1.15;;;;;;;;;;5000731;28;20045;-74
2023/07/05 12:12:45;;;;;;;8.93;1.98;;;;;;;;;;5009666;28;20049;-86
2023/07/05 12:15:12;;;;;;;9.18;2.10;;;;;;;;;;5010339;28;20077;-76
2023/07/05 12:17:38;;;;;;;6.18;1.70;;;;;;;;;;4993686;28;20099;-88
2023/07/05 12:20:07;;;;;;;7.38;1.70;;;;;;;;;;4982040;28;20045;-88
2023/07/05 12:22:33;;;;;;;6.07;1.60;;;;;;;;;;4992641;28;20049;-80
2023/07/05 12:24:59;;;;;;;5.30;1.80;;;;;;;;;;5016511;28;20064;-83
2023/07/05 12:27:27;;;;;;;5.38;1.90;;;;;;;;;;5008379;28;20046;-86
2023/07/05 12:29:56;;;;;;;8.48;2.00;;;;;;;;;;4977837;28;20041;-74
2023/07/05 12:32:24;;;;;;;8.23;2.05;;;;;;;;;;5000829;28;20061;-88
2023/07/05 12:35:09;;;;;;;5.47;2.20;;;;;;;;;;5007618;28;20402;-87
2023/07/05 12:37:35;;;;;;;5.75;1.90;;;;;;;;;;4997525;28;20131;-84
2023/07/05 12:40:12;;;;;;;3.60;1.38;;;;;;;;;;4990883;28;20039;-86
2023/07/05 12:42:48;;;;;;;5.05;1.50;;;;;;;;;;5010452;28;20509;-85
2023/07/05 12:45:16;;;;;;;3.85;1.33;;;;;;;;;;4994782;28;20049;-82
2023/07/05 12:47:42;;;;;;;3.55;1.45;;;;;;;;;;4991591;28;20094;-88
2023/07/05 12:50:09;;;;;;;8.70;2.28;;;;;;;;;;4997170;28;20407;-84
2023/07/05 12:52:35;;;;;;;11.18;2.60;;;;;;;;;;4990289;28;20045;-81
2023/07/05 12:55:01;;;;;;;8.60;2.28;;;;;;;;;;4985891;28;20133;-74
2023/07/05 12:57:32;;;;;;;10.90;2.60;;;;;;;;;;4989673;28;20069;-73
2023/07/05 12:59:58;;;;;;;13.45;2.83;;;;;;;;;;5006091;28;20435;-86
2023/07/05 13:02:29;;;;;;;13.63;3.15;;;;;;;;;;5003177;28;20128;-75
2023/07/05 13:04:55;;;;;;;11.60;2.50;;;;;;;;;;4988928;28;20085;-78
2023/07/05 13:07:22;;;;;;;10.90;2.45;;;;;;;;;;5007231;28;20132;-73
2023/07/05 13:09:50;;;;;;;8.63;2.38;;;;;;;;;;5008459;28;20128;-77
2023/07/05 13:12:16;;;;;;;12.00;2.72;;;;;;;;;;4990166;28;20173;-70
2023/07/05 13:14:55;;;;;;;9.93;2.25;;;;;;;;;;4989756;28;20060;-85
2023/07/05 13:17:25;;;;;;;7.68;2.00;;;;;;;;;;4980456;28;20045;-81
2023/07/05 13:20:11;;;;;;;8.05;1.75;;;;;;;;;;5002298;28;20050;-84
2023/07/05 13:22:58;;;;;;;7.88;1.90;;;;;;;;;;4988824;28;20406;-80
2023/07/05 13:25:26;;;;;;;9.75;2.05;;;;;;;;;;4995221;28;20049;-82
2023/07/05 13:27:56;;;;;;;8.77;2.00;;;;;;;;;;4995633;28;20052;-84
2023/07/05 13:30:23;;;;;;;8.02;1.85;;;;;;;;;;4999473;28;20041;-86
2023/07/05 13:32:53;;;;;;;8.77;2.30;;;;;;;;;;5007333;28;20069;-87
2023/07/05 13:35:20;;;;;;;12.65;2.83;;;;;;;;;;4992451;28;20644;-81
2023/07/05 13:37:46;;;;;;;12.68;2.33;;;;;;;;;;5011198;28;20041;-72
2023/07/05 13:40:20;;;;;;;11.13;2.50;;;;;;;;;;5015683;28;20079;-86
2023/07/05 13:42:47;;;;;;;9.57;2.95;;;;;;;;;;4995279;28;20057;-88
2023/07/05 13:45:16;;;;;;;7.55;2.17;;;;;;;;;;5008125;28;20136;-74
2023/07/05 13:47:42;;;;;;;11.38;2.50;;;;;;;;;;4990774;28;20072;-76
2023/07/05 13:50:12;;;;;;;9.05;2.60;;;;;;;;;;4994136;28;20041;-75
2023/07/05 13:52:38;;;;;;;13.30;3.10;;;;;;;;;;4998509;28;20049;-81
2023/07/05 13:55:04;;;;;;;13.60;2.55;;;;;;;;;;4998389;28;20455;-80
2023/07/05 13:57:30;;;;;;;9.85;2.90;;;;;;;;;;4996148;28;20053;-80
2023/07/05 13:59:56;;;;;;;12.05;2.90;;;;;;;;;;4983485;28;20837;-84
2023/07/05 14:02:28;;;;;;;8.80;2.53;;;;;;;;;;5009173;28;20029;-88
2023/07/05 14:04:55;;;;;;;7.55;2.30;;;;;;;;;;4996579;28;20138;-77
2023/07/05 14:07:22;;;;;;;9.10;2.53;;;;;;;;;;4988413;28;20929;-85
2023/07/05 14:09:48;;;;;;;9.18;2.80;;;;;;;;;;4994969;28;20744;-87
2023/07/05 14:12:15;;;;;;;13.57;2.70;;;;;;;;;;4992952;28;20104;-83
2023/07/05 14:14:41;;;;;;;11.75;2.97;;;;;;;;;;4994584;28;20042;-83
2023/07/05 14:17:14;;;;;;;15.10;3.13;;;;;;;;;;5014318;28;20047;-82
2023/07/05 14:19:41;;;;;;;10.60;2.90;;;;;;;;;;4994774;28;20049;-74
2023/07/05 14:22:17;;;;;;;13.30;2.65;;;;;;;;;;4991472;28;20107;-82
2023/07/05 14:24:44;;;;;;;12.38;2.72;;;;;;;;;;4989020;28;20158;-83
2023/07/05 14:27:17;;;;;;;11.10;2.92;;;;;;;;;;5011752;28;20041;-70
2023/07/05 14:29:44;;;;;;;11.35;2.78;;;;;;;;;;4990158;28;20103;-86
2023/07/05 14:32:11;;;;;;;10.77;3.28;;;;;;;;;;4995488;28;20493;-76
2023/07/05 14:34:37;;;;;;;13.25;2.97;;;;;;;;;;4988934;28;20540;-80
2023/07/05 14:37:03;;;;;;;10.48;3.20;;;;;;;;;;5012954;28;20073;-86
2023/07/05 14:39:29;;;;;;;11.40;3.38;;;;;;;;;;4990596;28;20491;-75
2023/07/05 14:41:55;;;;;;;14.38;4.03;;;;;;;;;;4991140;28;20061;-77
2023/07/05 14:44:21;;;;;;;15.85;3.80;;;;;;;;;;5015425;28;20056;-81
2023/07/05 14:46:47;;;;;;;13.57;3.45;;;;;;;;;;5014534;28;20062;-77
2023/07/05 14:49:13;;;;;;;10.43;3.50;;;;;;;;;;5004798;28;20041;-80
2023/07/05 14:51:40;;;;;;;15.43;3.40;;;;;;;;;;5009356;28;20033;-86
2023/07/05 14:54:09;;;;;;;15.23;3.50;;;;;;;;;;5009438;28;20042;-85